sensor_id;sensor_type;location;lat;lon;timestamp;pressure;altitude;pressure_sealevel;temperature;humidity
39267;BME280;24967;51.154;13.812;2023-06-10T00:00:04;99315.69;;;21.26;61.83
39267;BME280;24967;51.154;13.812;2023-06-10T00:02:32;99323.66;;;21.21;61.67
39267;BME280;24967;51.154;13.812;2023-06-10T00:05:03;99318.25;;;21.21;61.87
39267;BME280;24967;51.154;13.812;2023-06-10T00:07:30;99313.31;;;21.18;61.73
39267;BME280;24967;51.154;13.812;2023-06-10T00:09:57;99316.22;;;21.17;61.81
39267;BME280;24967;51.154;13.812;2023-06-10T00:12:25;99311.88;;;21.16;61.75
39267;BME280;24967;51.154;13.812;2023-06-10T00:14:56;99313.31;;;21.18;61.65
39267;BME280;24967;51.154;13.812;2023-06-10T00:17:23;99313.75;;;21.15;61.58
39267;BME280;24967;51.154;13.812;2023-06-10T00:19:54;99321.00;;;21.15;61.55
39267;BME280;24967;51.154;13.812;2023-06-10T00:22:23;99312.53;;;21.11;61.72
39267;BME280;24967;51.154;13.812;2023-06-10T00:24:54;99312.53;;;21.11;61.63
39267;BME280;24967;51.154;13.812;2023-06-10T00:27:31;99322.31;;;21.12;61.71
39267;BME280;24967;51.154;13.812;2023-06-10T00:30:03;99321.69;;;21.10;61.73
39267;BME280;24967;51.154;13.812;2023-06-10T00:32:32;99312.16;;;21.08;61.85
39267;BME280;24967;51.154;13.812;2023-06-10T00:34:59;99319.44;;;21.07;61.90
39267;BME280;24967;51.154;13.812;2023-06-10T00:37:26;99315.91;;;21.07;61.90
39267;BME280;24967;51.154;13.812;2023-06-10T00:39:54;99321.53;;;21.05;61.90
39267;BME280;24967;51.154;13.812;2023-06-10T00:42:21;99334.69;;;21.01;61.72
39267;BME280;24967;51.154;13.812;2023-06-10T00:44:51;99333.69;;;20.96;61.64
39267;BME280;24967;51.154;13.812;2023-06-10T00:47:21;99334.38;;;20.91;61.79
39267;BME280;24967;51.154;13.812;2023-06-10T00:49:49;99340.25;;;20.81;61.71
39267;BME280;24967;51.154;13.812;2023-06-10T00:52:24;99343.63;;;20.77;61.83
39267;BME280;24967;51.154;13.812;2023-06-10T00:54:54;99352.84;;;20.69;61.74
39267;BME280;24967;51.154;13.812;2023-06-10T00:57:21;99355.59;;;20.63;61.74
39267;BME280;24967;51.154;13.812;2023-06-10T00:59:48;99351.69;;;20.58;61.78
39267;BME280;24967;51.154;13.812;2023-06-10T01:02:19;99352.50;;;20.59;61.59
39267;BME280;24967;51.154;13.812;2023-06-10T01:04:46;99350.50;;;20.48;61.72
39267;BME280;24967;51.154;13.812;2023-06-10T01:07:36;99356.19;;;20.40;61.96
39267;BME280;24967;51.154;13.812;2023-06-10T01:10:08;99359.06;;;20.38;62.02
39267;BME280;24967;51.154;13.812;2023-06-10T01:12:39;99358.03;;;20.07;62.53
39267;BME280;24967;51.154;13.812;2023-06-10T01:15:17;99364.88;;;20.10;62.49
39267;BME280;24967;51.154;13.812;2023-06-10T01:17:58;99361.94;;;20.11;62.15
39267;BME280;24967;51.154;13.812;2023-06-10T01:20:27;99364.50;;;20.06;62.00
39267;BME280;24967;51.154;13.812;2023-06-10T01:22:56;99362.22;;;20.03;62.25
39267;BME280;24967;51.154;13.812;2023-06-10T01:25:29;99370.94;;;19.99;62.69
39267;BME280;24967;51.154;13.812;2023-06-10T01:28:02;99364.72;;;19.98;63.00
39267;BME280;24967;51.154;13.812;2023-06-10T01:30:39;99364.34;;;19.95;63.07
39267;BME280;24967;51.154;13.812;2023-06-10T01:33:09;99371.41;;;19.89;63.40
39267;BME280;24967;51.154;13.812;2023-06-10T01:35:41;99366.06;;;19.82;63.60
39267;BME280;24967;51.154;13.812;2023-06-10T01:38:09;99372.72;;;19.80;63.46
39267;BME280;24967;51.154;13.812;2023-06-10T01:40:37;99380.59;;;19.75;63.50
39267;BME280;24967;51.154;13.812;2023-06-10T01:43:05;99377.50;;;19.71;63.73
39267;BME280;24967;51.154;13.812;2023-06-10T01:45:34;99373.81;;;19.65;64.13
39267;BME280;24967;51.154;13.812;2023-06-10T01:48:06;99376.50;;;19.59;64.24
39267;BME280;24967;51.154;13.812;2023-06-10T01:50:33;99386.22;;;19.60;64.16
39267;BME280;24967;51.154;13.812;2023-06-10T01:53:01;99383.56;;;19.53;64.41
39267;BME280;24967;51.154;13.812;2023-06-10T01:55:29;99387.50;;;19.51;64.35
39267;BME280;24967;51.154;13.812;2023-06-10T01:57:58;99392.13;;;19.37;64.99
39267;BME280;24967;51.154;13.812;2023-06-10T02:00:25;99391.13;;;19.25;65.31
39267;BME280;24967;51.154;13.812;2023-06-10T02:02:52;99395.25;;;19.20;65.42
39267;BME280;24967;51.154;13.812;2023-06-10T02:05:26;99390.06;;;19.26;65.42
39267;BME280;24967;51.154;13.812;2023-06-10T02:07:55;99397.34;;;19.05;66.02
39267;BME280;24967;51.154;13.812;2023-06-10T02:10:22;99395.88;;;19.03;65.76
39267;BME280;24967;51.154;13.812;2023-06-10T02:12:51;99399.00;;;18.99;65.75
39267;BME280;24967;51.154;13.812;2023-06-10T02:15:18;99398.81;;;18.94;65.50
39267;BME280;24967;51.154;13.812;2023-06-10T02:17:45;99399.44;;;18.90;65.54
39267;BME280;24967;51.154;13.812;2023-06-10T02:20:15;99408.13;;;18.92;65.54
39267;BME280;24967;51.154;13.812;2023-06-10T02:22:44;99408.16;;;18.85;65.52
39267;BME280;24967;51.154;13.812;2023-06-10T02:25:11;99402.75;;;18.79;65.68
39267;BME280;24967;51.154;13.812;2023-06-10T02:27:40;99405.84;;;18.75;65.89
39267;BME280;24967;51.154;13.812;2023-06-10T02:30:10;99404.81;;;18.70;66.08
39267;BME280;24967;51.154;13.812;2023-06-10T02:32:39;99400.03;;;18.65;66.14
39267;BME280;24967;51.154;13.812;2023-06-10T02:35:07;99397.94;;;18.61;66.34
39267;BME280;24967;51.154;13.812;2023-06-10T02:37:40;99407.06;;;18.46;66.93
39267;BME280;24967;51.154;13.812;2023-06-10T02:40:10;99402.06;;;18.37;67.08
39267;BME280;24967;51.154;13.812;2023-06-10T02:42:37;99404.31;;;18.33;67.02
39267;BME280;24967;51.154;13.812;2023-06-10T02:45:05;99409.69;;;18.26;67.24
39267;BME280;24967;51.154;13.812;2023-06-10T02:47:35;99411.31;;;18.21;67.75
39267;BME280;24967;51.154;13.812;2023-06-10T02:50:06;99407.00;;;18.20;67.28
39267;BME280;24967;51.154;13.812;2023-06-10T02:52:34;99406.34;;;18.18;67.62
39267;BME280;24967;51.154;13.812;2023-06-10T02:55:01;99404.72;;;18.17;67.60
39267;BME280;24967;51.154;13.812;2023-06-10T02:57:28;99409.88;;;18.18;67.64
39267;BME280;24967;51.154;13.812;2023-06-10T02:59:55;99407.41;;;18.17;67.90
39267;BME280;24967;51.154;13.812;2023-06-10T03:02:31;99404.06;;;18.15;67.83
39267;BME280;24967;51.154;13.812;2023-06-10T03:04:59;99402.41;;;18.14;68.16
39267;BME280;24967;51.154;13.812;2023-06-10T03:07:30;99406.56;;;18.10;68.07
39267;BME280;24967;51.154;13.812;2023-06-10T03:09:57;99406.56;;;18.10;67.96
39267;BME280;24967;51.154;13.812;2023-06-10T03:12:27;99414.81;;;18.08;68.16
39267;BME280;24967;51.154;13.812;2023-06-10T03:14:57;99409.84;;;18.05;68.05
39267;BME280;24967;51.154;13.812;2023-06-10T03:17:24;99411.84;;;17.90;68.52
39267;BME280;24967;51.154;13.812;2023-06-10T03:19:51;99410.56;;;17.79;68.88
39267;BME280;24967;51.154;13.812;2023-06-10T03:22:24;99405.13;;;17.72;69.18
39267;BME280;24967;51.154;13.812;2023-06-10T03:24:57;99410.50;;;17.72;69.27
39267;BME280;24967;51.154;13.812;2023-06-10T03:27:31;99415.66;;;17.67;69.46
39267;BME280;24967;51.154;13.812;2023-06-10T03:29:58;99415.69;;;17.74;69.38
39267;BME280;24967;51.154;13.812;2023-06-10T03:32:25;99421.47;;;17.71;70.12
39267;BME280;24967;51.154;13.812;2023-06-10T03:34:52;99419.41;;;17.73;70.37
39267;BME280;24967;51.154;13.812;2023-06-10T03:37:38;99430.84;;;17.81;70.02
39267;BME280;24967;51.154;13.812;2023-06-10T03:40:08;99424.66;;;17.81;70.62
39267;BME280;24967;51.154;13.812;2023-06-10T03:42:35;99427.06;;;17.76;70.84
39267;BME280;24967;51.154;13.812;2023-06-10T03:45:05;99427.91;;;17.76;71.03
39267;BME280;24967;51.154;13.812;2023-06-10T03:47:36;99425.47;;;17.81;70.68
39267;BME280;24967;51.154;13.812;2023-06-10T03:50:03;99426.50;;;17.80;70.57
39267;BME280;24967;51.154;13.812;2023-06-10T03:52:30;99433.97;;;17.85;70.53
39267;BME280;24967;51.154;13.812;2023-06-10T03:54:59;99433.78;;;17.87;70.13
39267;BME280;24967;51.154;13.812;2023-06-10T03:57:26;99435.41;;;17.88;70.02
39267;BME280;24967;51.154;13.812;2023-06-10T03:59:53;99437.09;;;17.89;69.95
39267;BME280;24967;51.154;13.812;2023-06-10T04:02:25;99437.91;;;17.89;70.27
39267;BME280;24967;51.154;13.812;2023-06-10T04:04:54;99433.38;;;17.90;70.36
39267;BME280;24967;51.154;13.812;2023-06-10T04:07:21;99439.16;;;17.93;70.46
39267;BME280;24967;51.154;13.812;2023-06-10T04:09:51;99444.78;;;17.98;70.63
39267;BME280;24967;51.154;13.812;2023-06-10T04:12:24;99443.34;;;18.02;71.22
39267;BME280;24967;51.154;13.812;2023-06-10T04:14:51;99443.19;;;18.11;71.10
39267;BME280;24967;51.154;13.812;2023-06-10T04:17:27;99446.72;;;18.18;71.33
39267;BME280;24967;51.154;13.812;2023-06-10T04:19:54;99441.94;;;18.13;71.76
39267;BME280;24967;51.154;13.812;2023-06-10T04:22:26;99451.50;;;18.22;71.68
39267;BME280;24967;51.154;13.812;2023-06-10T04:24:53;99446.94;;;18.23;72.07
39267;BME280;24967;51.154;13.812;2023-06-10T04:27:27;99445.13;;;18.37;71.57
39267;BME280;24967;51.154;13.812;2023-06-10T04:29:54;99447.19;;;18.35;71.95
39267;BME280;24967;51.154;13.812;2023-06-10T04:32:26;99451.34;;;18.44;72.03
39267;BME280;24967;51.154;13.812;2023-06-10T04:34:53;99450.94;;;18.47;72.00
39267;BME280;24967;51.154;13.812;2023-06-10T04:37:29;99443.50;;;18.56;71.66
39267;BME280;24967;51.154;13.812;2023-06-10T04:39:57;99445.16;;;18.63;71.45
39267;BME280;24967;51.154;13.812;2023-06-10T04:42:27;99447.25;;;18.68;71.39
39267;BME280;24967;51.154;13.812;2023-06-10T04:44:55;99443.50;;;18.69;71.61
39267;BME280;24967;51.154;13.812;2023-06-10T04:47:23;99435.69;;;18.74;71.62
39267;BME280;24967;51.154;13.812;2023-06-10T04:49:52;99441.69;;;18.96;70.99
39267;BME280;24967;51.154;13.812;2023-06-10T04:52:21;99441.91;;;19.01;70.76
39267;BME280;24967;51.154;13.812;2023-06-10T04:54:52;99450.63;;;19.10;70.70
39267;BME280;24967;51.154;13.812;2023-06-10T04:57:21;99445.63;;;19.13;71.09
39267;BME280;24967;51.154;13.812;2023-06-10T04:59:56;99449.78;;;19.16;70.94
39267;BME280;24967;51.154;13.812;2023-06-10T05:02:26;99452.03;;;19.26;70.54
39267;BME280;24967;51.154;13.812;2023-06-10T05:04:53;99445.59;;;19.40;70.34
39267;BME280;24967;51.154;13.812;2023-06-10T05:07:23;99447.44;;;19.39;70.22
39267;BME280;24967;51.154;13.812;2023-06-10T05:09:54;99446.44;;;19.34;70.77
39267;BME280;24967;51.154;13.812;2023-06-10T05:12:25;99452.41;;;19.56;70.78
39267;BME280;24967;51.154;13.812;2023-06-10T05:14:52;99457.78;;;19.69;70.19
39267;BME280;24967;51.154;13.812;2023-06-10T05:17:25;99463.19;;;19.69;70.57
39267;BME280;24967;51.154;13.812;2023-06-10T05:19:55;99460.00;;;19.92;70.75
39267;BME280;24967;51.154;13.812;2023-06-10T05:22:27;99462.66;;;20.05;70.96
39267;BME280;24967;51.154;13.812;2023-06-10T05:24:54;99468.59;;;20.27;70.49
39267;BME280;24967;51.154;13.812;2023-06-10T05:27:27;99461.09;;;20.68;69.42
39267;BME280;24967;51.154;13.812;2023-06-10T05:29:56;99467.31;;;21.00;66.60
39267;BME280;24967;51.154;13.812;2023-06-10T05:32:26;99460.38;;;21.36;66.10
39267;BME280;24967;51.154;13.812;2023-06-10T05:34:57;99472.13;;;22.03;65.01
39267;BME280;24967;51.154;13.812;2023-06-10T05:37:25;99463.69;;;22.60;62.99
39267;BME280;24967;51.154;13.812;2023-06-10T05:39:52;99467.72;;;23.11;60.51
39267;BME280;24967;51.154;13.812;2023-06-10T05:42:26;99469.03;;;23.79;59.57
39267;BME280;24967;51.154;13.812;2023-06-10T05:44:53;99466.97;;;24.38;55.89
39267;BME280;24967;51.154;13.812;2023-06-10T05:47:27;99468.72;;;24.73;54.38
39267;BME280;24967;51.154;13.812;2023-06-10T05:49:54;99462.50;;;25.23;54.04
39267;BME280;24967;51.154;13.812;2023-06-10T05:52:26;99460.59;;;25.57;53.19
39267;BME280;24967;51.154;13.812;2023-06-10T05:54:53;99468.41;;;25.93;50.94
39267;BME280;24967;51.154;13.812;2023-06-10T05:57:26;99468.19;;;26.43;50.68
39267;BME280;24967;51.154;13.812;2023-06-10T05:59:58;99463.31;;;27.00;49.40
39267;BME280;24967;51.154;13.812;2023-06-10T06:02:31;99457.41;;;27.45;48.08
39267;BME280;24967;51.154;13.812;2023-06-10T06:05:02;99460.78;;;27.68;46.42
39267;BME280;24967;51.154;13.812;2023-06-10T06:07:33;99461.72;;;27.78;46.48
39267;BME280;24967;51.154;13.812;2023-06-10T06:10:01;99460.66;;;27.90;46.11
39267;BME280;24967;51.154;13.812;2023-06-10T06:12:28;99465.28;;;27.89;46.61
39267;BME280;24967;51.154;13.812;2023-06-10T06:15:04;99464.47;;;27.89;45.67
39267;BME280;24967;51.154;13.812;2023-06-10T06:17:35;99459.03;;;27.89;47.66
39267;BME280;24967;51.154;13.812;2023-06-10T06:20:02;99464.94;;;27.75;46.15
39267;BME280;24967;51.154;13.812;2023-06-10T06:22:29;99463.69;;;27.46;47.54
39267;BME280;24967;51.154;13.812;2023-06-10T06:24:56;99455.97;;;27.32;48.39
39267;BME280;24967;51.154;13.812;2023-06-10T06:27:23;99465.06;;;27.48;47.71
39267;BME280;24967;51.154;13.812;2023-06-10T06:29:57;99464.50;;;27.46;48.75
39267;BME280;24967;51.154;13.812;2023-06-10T06:32:25;99465.19;;;27.74;48.22
39267;BME280;24967;51.154;13.812;2023-06-10T06:34:54;99464.88;;;28.18;46.83
39267;BME280;24967;51.154;13.812;2023-06-10T06:37:28;99472.53;;;28.16;46.93
39267;BME280;24967;51.154;13.812;2023-06-10T06:40:06;99470.06;;;28.19;45.79
39267;BME280;24967;51.154;13.812;2023-06-10T06:42:36;99463.16;;;28.01;47.14
39267;BME280;24967;51.154;13.812;2023-06-10T06:45:04;99471.34;;;27.96;46.75
39267;BME280;24967;51.154;13.812;2023-06-10T06:47:34;99480.50;;;27.75;46.31
39267;BME280;24967;51.154;13.812;2023-06-10T06:50:10;99472.25;;;27.64;47.50
39267;BME280;24967;51.154;13.812;2023-06-10T06:52:39;99477.44;;;27.24;48.30
39267;BME280;24967;51.154;13.812;2023-06-10T06:55:06;99477.00;;;26.78;48.17
39267;BME280;24967;51.154;13.812;2023-06-10T06:57:38;99486.91;;;26.57;49.32
39267;BME280;24967;51.154;13.812;2023-06-10T07:00:09;99488.78;;;26.56;49.38
39267;BME280;24967;51.154;13.812;2023-06-10T07:02:42;99496.78;;;26.41;49.30
39267;BME280;24967;51.154;13.812;2023-06-10T07:05:10;99493.31;;;26.01;50.09
39267;BME280;24967;51.154;13.812;2023-06-10T07:07:47;99503.19;;;25.86;51.05
39267;BME280;24967;51.154;13.812;2023-06-10T07:10:29;99505.16;;;25.73;51.27
39267;BME280;24967;51.154;13.812;2023-06-10T07:12:57;99510.94;;;25.77;52.05
39267;BME280;24967;51.154;13.812;2023-06-10T07:15:27;99509.13;;;25.83;52.00
39267;BME280;24967;51.154;13.812;2023-06-10T07:17:58;99503.06;;;25.80;53.12
39267;BME280;24967;51.154;13.812;2023-06-10T07:20:30;99508.13;;;25.89;51.96
39267;BME280;24967;51.154;13.812;2023-06-10T07:22:59;99505.41;;;26.11;52.66
39267;BME280;24967;51.154;13.812;2023-06-10T07:25:29;99509.47;;;26.52;52.11
39267;BME280;24967;51.154;13.812;2023-06-10T07:27:58;99510.44;;;26.63;50.78
39267;BME280;24967;51.154;13.812;2023-06-10T07:30:35;99509.13;;;26.70;50.32
39267;BME280;24967;51.154;13.812;2023-06-10T07:33:06;99510.88;;;26.82;50.97
39267;BME280;24967;51.154;13.812;2023-06-10T07:35:46;99516.50;;;26.70;50.80
39267;BME280;24967;51.154;13.812;2023-06-10T07:38:14;99518.03;;;26.61;50.13
39267;BME280;24967;51.154;13.812;2023-06-10T07:40:49;99518.97;;;26.49;50.75
39267;BME280;24967;51.154;13.812;2023-06-10T07:43:36;99518.56;;;26.41;50.52
39267;BME280;24967;51.154;13.812;2023-06-10T07:46:19;99516.38;;;26.60;50.24
39267;BME280;24967;51.154;13.812;2023-06-10T07:48:53;99520.38;;;27.06;49.74
39267;BME280;24967;51.154;13.812;2023-06-10T07:51:24;99519.66;;;27.16;47.27
39267;BME280;24967;51.154;13.812;2023-06-10T07:54:00;99517.72;;;26.84;48.50
39267;BME280;24967;51.154;13.812;2023-06-10T07:56:29;99523.63;;;27.30;48.95
39267;BME280;24967;51.154;13.812;2023-06-10T07:58:59;99519.66;;;27.48;48.18
39267;BME280;24967;51.154;13.812;2023-06-10T08:01:32;99517.84;;;27.64;48.56
39267;BME280;24967;51.154;13.812;2023-06-10T08:04:03;99516.09;;;27.85;49.05
39267;BME280;24967;51.154;13.812;2023-06-10T08:06:45;99519.94;;;27.89;47.41
39267;BME280;24967;51.154;13.812;2023-06-10T08:09:15;99513.25;;;28.22;47.47
39267;BME280;24967;51.154;13.812;2023-06-10T08:11:44;99512.47;;;28.32;46.61
39267;BME280;24967;51.154;13.812;2023-06-10T08:14:13;99527.03;;;28.43;47.08
39267;BME280;24967;51.154;13.812;2023-06-10T08:16:43;99518.25;;;28.36;46.08
39267;BME280;24967;51.154;13.812;2023-06-10T08:19:21;99526.25;;;28.47;45.95
39267;BME280;24967;51.154;13.812;2023-06-10T08:21:49;99526.28;;;28.63;45.22
39267;BME280;24967;51.154;13.812;2023-06-10T08:24:25;99525.69;;;28.45;45.38
39267;BME280;24967;51.154;13.812;2023-06-10T08:26:52;99526.97;;;28.38;45.96
39267;BME280;24967;51.154;13.812;2023-06-10T08:29:27;99531.34;;;28.34;45.61
39267;BME280;24967;51.154;13.812;2023-06-10T08:31:57;99526.22;;;28.42;46.02
39267;BME280;24967;51.154;13.812;2023-06-10T08:35:05;99529.28;;;28.61;46.07
39267;BME280;24967;51.154;13.812;2023-06-10T08:37:18;99533.69;;;28.72;44.46
39267;BME280;24967;51.154;13.812;2023-06-10T08:39:55;99539.75;;;28.22;43.69
39267;BME280;24967;51.154;13.812;2023-06-10T08:43:10;99538.31;;;28.04;46.00
39267;BME280;24967;51.154;13.812;2023-06-10T08:45:24;99535.13;;;27.75;45.61
39267;BME280;24967;51.154;13.812;2023-06-10T08:48:05;99530.16;;;27.67;45.37
39267;BME280;24967;51.154;13.812;2023-06-10T08:50:36;99530.00;;;27.78;43.43
39267;BME280;24967;51.154;13.812;2023-06-10T08:53:06;99529.47;;;27.86;43.58
39267;BME280;24967;51.154;13.812;2023-06-10T08:55:36;99528.94;;;27.90;44.32
39267;BME280;24967;51.154;13.812;2023-06-10T08:58:04;99524.28;;;27.85;44.51
39267;BME280;24967;51.154;13.812;2023-06-10T09:00:35;99524.94;;;28.02;43.77
39267;BME280;24967;51.154;13.812;2023-06-10T09:03:07;99524.25;;;27.80;44.12
39267;BME280;24967;51.154;13.812;2023-06-10T09:05:39;99514.47;;;27.89;44.27
39267;BME280;24967;51.154;13.812;2023-06-10T09:08:12;99515.13;;;28.17;43.96
39267;BME280;24967;51.154;13.812;2023-06-10T09:10:47;99520.50;;;28.54;42.67
39267;BME280;24967;51.154;13.812;2023-06-10T09:13:14;99515.66;;;28.82;42.96
39267;BME280;24967;51.154;13.812;2023-06-10T09:15:51;99510.25;;;29.17;42.39
39267;BME280;24967;51.154;13.812;2023-06-10T09:18:25;99506.13;;;29.25;41.72
39267;BME280;24967;51.154;13.812;2023-06-10T09:20:52;99508.56;;;29.32;40.97
39267;BME280;24967;51.154;13.812;2023-06-10T09:23:28;99507.22;;;29.44;42.01
39267;BME280;24967;51.154;13.812;2023-06-10T09:26:00;99507.19;;;29.55;39.76
39267;BME280;24967;51.154;13.812;2023-06-10T09:28:30;99502.78;;;29.74;38.94
39267;BME280;24967;51.154;13.812;2023-06-10T09:31:04;99503.63;;;29.64;38.36
39267;BME280;24967;51.154;13.812;2023-06-10T09:33:37;99515.94;;;29.72;38.75
39267;BME280;24967;51.154;13.812;2023-06-10T09:36:05;99509.91;;;29.75;38.38
39267;BME280;24967;51.154;13.812;2023-06-10T09:38:37;99516.50;;;29.69;38.20
39267;BME280;24967;51.154;13.812;2023-06-10T09:41:06;99517.28;;;29.90;37.76
39267;BME280;24967;51.154;13.812;2023-06-10T09:43:40;99508.25;;;29.74;39.16
39267;BME280;24967;51.154;13.812;2023-06-10T09:46:16;99512.91;;;29.74;39.69
39267;BME280;24967;51.154;13.812;2023-06-10T09:48:47;99518.44;;;29.63;39.70
39267;BME280;24967;51.154;13.812;2023-06-10T09:51:19;99521.44;;;29.36;40.09
39267;BME280;24967;51.154;13.812;2023-06-10T09:53:57;99516.50;;;29.28;40.21
39267;BME280;24967;51.154;13.812;2023-06-10T09:56:33;99529.63;;;29.11;40.82
39267;BME280;24967;51.154;13.812;2023-06-10T09:59:01;99530.16;;;28.87;41.24
39267;BME280;24967;51.154;13.812;2023-06-10T10:01:29;99533.16;;;29.01;41.32
39267;BME280;24967;51.154;13.812;2023-06-10T10:03:59;99529.91;;;29.19;41.30
39267;BME280;24967;51.154;13.812;2023-06-10T10:06:29;99527.44;;;28.97;40.15
39267;BME280;24967;51.154;13.812;2023-06-10T10:09:00;99528.28;;;29.03;40.02
39267;BME280;24967;51.154;13.812;2023-06-10T10:11:32;99529.06;;;28.93;40.91
39267;BME280;24967;51.154;13.812;2023-06-10T10:14:03;99521.72;;;29.14;40.23
39267;BME280;24967;51.154;13.812;2023-06-10T10:16:36;99522.78;;;29.44;40.36
39267;BME280;24967;51.154;13.812;2023-06-10T10:19:10;99520.31;;;29.58;40.95
39267;BME280;24967;51.154;13.812;2023-06-10T10:22:01;99527.44;;;29.74;40.32
39267;BME280;24967;51.154;13.812;2023-06-10T10:24:39;99522.81;;;29.64;40.50
39267;BME280;24967;51.154;13.812;2023-06-10T10:27:20;99516.81;;;29.62;40.29
39267;BME280;24967;51.154;13.812;2023-06-10T10:29:52;99521.34;;;30.08;40.41
39267;BME280;24967;51.154;13.812;2023-06-10T10:32:33;99525.41;;;30.16;39.40
39267;BME280;24967;51.154;13.812;2023-06-10T10:35:08;99525.94;;;30.18;39.96
39267;BME280;24967;51.154;13.812;2023-06-10T10:37:37;99522.13;;;30.24;39.84
39267;BME280;24967;51.154;13.812;2023-06-10T10:40:07;99522.34;;;30.32;39.46
39267;BME280;24967;51.154;13.812;2023-06-10T10:42:35;99505.81;;;30.48;38.65
39267;BME280;24967;51.154;13.812;2023-06-10T10:45:04;99512.56;;;30.06;39.00
39267;BME280;24967;51.154;13.812;2023-06-10T10:47:36;99505.38;;;30.25;39.19
39267;BME280;24967;51.154;13.812;2023-06-10T10:50:13;99514.63;;;30.40;38.78
39267;BME280;24967;51.154;13.812;2023-06-10T10:53:07;99515.19;;;30.37;37.77
39267;BME280;24967;51.154;13.812;2023-06-10T10:55:44;99513.84;;;30.34;38.05
39267;BME280;24967;51.154;13.812;2023-06-10T10:58:25;99500.09;;;30.44;37.98
39267;BME280;24967;51.154;13.812;2023-06-10T11:01:12;99495.69;;;30.43;37.69
39267;BME280;24967;51.154;13.812;2023-06-10T11:03:45;99496.78;;;30.47;37.72
39267;BME280;24967;51.154;13.812;2023-06-10T11:06:16;99500.81;;;29.95;38.32
39267;BME280;24967;51.154;13.812;2023-06-10T11:08:53;99500.47;;;30.17;38.10
39267;BME280;24967;51.154;13.812;2023-06-10T11:11:26;99490.88;;;30.15;37.05
39267;BME280;24967;51.154;13.812;2023-06-10T11:14:09;99491.41;;;30.22;37.52
39267;BME280;24967;51.154;13.812;2023-06-10T11:16:41;99491.59;;;30.41;37.31
39267;BME280;24967;51.154;13.812;2023-06-10T11:19:33;99482.13;;;30.62;36.69
39267;BME280;24967;51.154;13.812;2023-06-10T11:22:01;99483.59;;;30.49;37.69
39267;BME280;24967;51.154;13.812;2023-06-10T11:24:28;99482.63;;;30.74;36.83
39267;BME280;24967;51.154;13.812;2023-06-10T11:27:14;99484.06;;;30.62;36.36
39267;BME280;24967;51.154;13.812;2023-06-10T11:30:00;99470.75;;;30.45;37.22
39267;BME280;24967;51.154;13.812;2023-06-10T11:32:53;99477.28;;;30.93;36.06
39267;BME280;24967;51.154;13.812;2023-06-10T11:35:24;99481.47;;;30.86;35.13
39267;BME280;24967;51.154;13.812;2023-06-10T11:37:54;99467.31;;;30.63;34.67
39267;BME280;24967;51.154;13.812;2023-06-10T11:40:30;99462.34;;;30.65;35.95
39267;BME280;24967;51.154;13.812;2023-06-10T11:43:03;99466.28;;;30.54;36.00
39267;BME280;24967;51.154;13.812;2023-06-10T11:45:31;99475.75;;;30.32;36.76
39267;BME280;24967;51.154;13.812;2023-06-10T11:47:58;99473.00;;;30.32;37.17
39267;BME280;24967;51.154;13.812;2023-06-10T11:50:43;99467.59;;;30.12;37.85
39267;BME280;24967;51.154;13.812;2023-06-10T11:53:12;99462.34;;;30.16;38.83
39267;BME280;24967;51.154;13.812;2023-06-10T11:55:43;99463.16;;;30.16;36.27
39267;BME280;24967;51.154;13.812;2023-06-10T11:58:23;99470.72;;;29.85;36.25
39267;BME280;24967;51.154;13.812;2023-06-10T12:00:52;99470.75;;;29.75;36.40
39267;BME280;24967;51.154;13.812;2023-06-10T12:03:23;99466.59;;;29.82;35.47
39267;BME280;24967;51.154;13.812;2023-06-10T12:05:58;99461.88;;;29.98;36.34
39267;BME280;24967;51.154;13.812;2023-06-10T12:08:25;99461.25;;;30.17;35.93
39267;BME280;24967;51.154;13.812;2023-06-10T12:10:58;99463.69;;;30.28;36.29
39267;BME280;24967;51.154;13.812;2023-06-10T12:13:31;99462.91;;;30.18;35.61
39267;BME280;24967;51.154;13.812;2023-06-10T12:16:11;99468.72;;;30.01;35.21
39267;BME280;24967;51.154;13.812;2023-06-10T12:18:49;99464.34;;;30.05;36.88
39267;BME280;24967;51.154;13.812;2023-06-10T12:21:18;99465.13;;;30.21;36.04
39267;BME280;24967;51.154;13.812;2023-06-10T12:24:05;99464.00;;;30.22;36.74
39267;BME280;24967;51.154;13.812;2023-06-10T12:26:39;99457.06;;;30.40;35.69
39267;BME280;24967;51.154;13.812;2023-06-10T12:29:24;99449.28;;;30.52;37.04
39267;BME280;24967;51.154;13.812;2023-06-10T12:32:00;99447.81;;;30.70;35.81
39267;BME280;24967;51.154;13.812;2023-06-10T12:34:36;99449.41;;;30.81;34.97
39267;BME280;24967;51.154;13.812;2023-06-10T12:37:06;99445.41;;;30.58;35.59
39267;BME280;24967;51.154;13.812;2023-06-10T12:39:43;99443.25;;;30.55;35.33
39267;BME280;24967;51.154;13.812;2023-06-10T12:42:31;99451.56;;;30.84;34.17
39267;BME280;24967;51.154;13.812;2023-06-10T12:45:03;99440.47;;;30.60;34.90
39267;BME280;24967;51.154;13.812;2023-06-10T12:47:34;99443.09;;;30.75;34.82
39267;BME280;24967;51.154;13.812;2023-06-10T12:50:04;99445.91;;;31.05;35.00
39267;BME280;24967;51.154;13.812;2023-06-10T12:52:38;99448.69;;;30.99;34.23
39267;BME280;24967;51.154;13.812;2023-06-10T12:55:07;99446.66;;;30.76;33.05
39267;BME280;24967;51.154;13.812;2023-06-10T12:57:37;99448.19;;;30.92;34.11
39267;BME280;24967;51.154;13.812;2023-06-10T13:00:30;99440.22;;;30.96;33.45
39267;BME280;24967;51.154;13.812;2023-06-10T13:03:20;99439.69;;;30.94;33.06
39267;BME280;24967;51.154;13.812;2023-06-10T13:05:53;99444.44;;;31.17;32.91
39267;BME280;24967;51.154;13.812;2023-06-10T13:08:28;99447.59;;;31.00;33.36
39267;BME280;24967;51.154;13.812;2023-06-10T13:10:55;99445.84;;;31.10;34.03
39267;BME280;24967;51.154;13.812;2023-06-10T13:13:27;99433.22;;;31.14;34.76